Ontario, Indiana
Current Conditions -  °F | °C
As of 7:15 AM on Monday 20 Oct 2014 (Local Time) from KIRS Reporting Station
Overcast Overcast  
Wind Chill:   Ceiling: 7000
Heat Index:   Visibility: 10mi
Dew Point:   Wind: 10mph
Humidity: 87%   Direction: 200°SSW
Pressure: 29.84"   Gusts: NA
Location:  41.7293°N, 85.4292°W
Report Text: KIRS 201115Z AUTO 20009KT 10SM SCT060 OVC070 09/07 A2984 RMK AO2
Loading
Personal Weather Stations






























Interactive Weather Map
Tropical Storm Tracking
New forecast layout! Learn more

10-Day Weather Forecast

Advertisements
Track Severe Weather on mobile